createdAt,value
2023-04-25T00:02:12.476Z,84.90
2023-04-25T00:04:43.345Z,85.96
2023-04-25T00:07:13.557Z,86.34
2023-04-25T00:09:44.464Z,85.80
2023-04-25T00:12:14.031Z,86.32
2023-04-25T00:14:43.844Z,86.56
2023-04-25T00:17:13.714Z,85.81
2023-04-25T00:19:45.674Z,86.14
2023-04-25T00:22:15.339Z,85.36
2023-04-25T00:24:45.294Z,85.70
2023-04-25T00:27:15.291Z,85.20
2023-04-25T00:29:45.097Z,85.85
2023-04-25T00:32:14.995Z,85.55
2023-04-25T00:34:44.878Z,85.40
2023-04-25T00:37:15.011Z,85.05
2023-04-25T00:39:44.849Z,84.44
2023-04-25T00:42:15.973Z,85.89
2023-04-25T00:44:46.917Z,85.06
2023-04-25T00:47:17.844Z,85.12
2023-04-25T00:49:47.800Z,86.75
2023-04-25T00:52:17.331Z,86.75
2023-04-25T00:54:47.580Z,86.11
2023-04-25T00:57:17.843Z,86.07
2023-04-25T00:59:48.423Z,87.55
2023-04-25T01:02:18.166Z,86.53
2023-04-25T01:04:48.739Z,86.35
2023-04-25T01:07:18.617Z,87.07
2023-04-25T01:09:49.052Z,86.70
2023-04-25T01:12:18.743Z,87.51
2023-04-25T01:14:48.697Z,87.22
2023-04-25T01:17:20.795Z,86.25
2023-04-25T01:19:51.760Z,86.97
2023-04-25T01:22:21.764Z,87.79
2023-04-25T01:24:51.925Z,88.15
2023-04-25T01:27:23.750Z,87.05
2023-04-25T01:29:53.957Z,87.61
2023-04-25T01:32:25.977Z,88.16
2023-04-25T01:34:57.673Z,86.87
2023-04-25T01:37:28.994Z,86.87
2023-04-25T01:39:59.036Z,86.15
2023-04-25T01:42:28.845Z,85.84
2023-04-25T01:44:58.954Z,86.26
2023-04-25T01:47:31.808Z,85.82
2023-04-25T01:50:01.682Z,85.94
2023-04-25T01:52:32.070Z,85.36
2023-04-25T01:55:04.533Z,86.76
2023-04-25T01:57:36.507Z,87.48
2023-04-25T02:00:10.131Z,87.48
2023-04-25T02:02:42.239Z,87.15
2023-04-25T02:05:14.019Z,87.78
2023-04-25T02:07:45.656Z,87.80
2023-04-25T02:10:15.908Z,87.11
2023-04-25T02:12:47.141Z,86.74
2023-04-25T02:15:18.442Z,86.89
2023-04-25T02:17:49.957Z,86.56
2023-04-25T02:20:20.942Z,85.98
2023-04-25T02:22:50.961Z,87.11
2023-04-25T02:25:21.703Z,86.70
2023-04-25T02:27:52.381Z,86.87
2023-04-25T02:30:22.257Z,88.06
2023-04-25T02:32:52.159Z,87.46
2023-04-25T02:35:21.829Z,88.45
2023-04-25T02:37:51.734Z,86.81
2023-04-25T02:40:21.398Z,88.23
2023-04-25T02:42:51.196Z,88.11
2023-04-25T02:45:21.513Z,86.95
2023-04-25T02:47:52.647Z,86.44
2023-04-25T02:50:22.817Z,86.41
2023-04-25T02:52:52.651Z,86.32
2023-04-25T02:55:26.253Z,87.19
2023-04-25T02:57:56.420Z,86.50
2023-04-25T03:00:31.236Z,86.17
2023-04-25T03:03:01.377Z,86.04
2023-04-25T03:05:31.379Z,85.76
2023-04-25T03:08:02.154Z,85.49
2023-04-25T03:10:32.249Z,85.52
2023-04-25T03:13:03.840Z,85.97
2023-04-25T03:15:33.662Z,86.60
2023-04-25T03:18:06.731Z,85.90
2023-04-25T03:20:36.620Z,86.11
2023-04-25T03:23:06.304Z,86.05
2023-04-25T03:25:36.446Z,85.84
2023-04-25T03:28:08.052Z,85.47
2023-04-25T03:30:38.217Z,86.29
2023-04-25T03:33:08.162Z,85.78
2023-04-25T03:35:37.688Z,85.15
2023-04-25T03:38:09.838Z,85.75
2023-04-25T03:40:41.362Z,85.41
2023-04-25T03:43:12.864Z,85.97
2023-04-25T03:45:44.615Z,85.95
2023-04-25T03:48:14.287Z,86.02
2023-04-25T03:50:44.171Z,85.75
2023-04-25T03:53:14.079Z,86.02
2023-04-25T03:55:45.706Z,85.88
2023-04-25T03:58:15.835Z,85.53
2023-04-25T04:00:45.847Z,86.61
2023-04-25T04:03:15.937Z,85.32
2023-04-25T04:05:47.554Z,85.12
2023-04-25T04:08:17.533Z,84.74
2023-04-25T04:10:47.336Z,85.89
2023-04-25T04:13:17.181Z,85.51
2023-04-25T04:15:47.647Z,85.65
2023-04-25T04:18:18.206Z,85.32
2023-04-25T04:20:48.131Z,85.90
2023-04-25T04:23:18.034Z,85.21
2023-04-25T04:25:48.912Z,85.21
2023-04-25T04:28:32.303Z,84.46
2023-04-25T04:31:06.836Z,84.98
2023-04-25T04:33:37.806Z,84.61
2023-04-25T04:36:10.816Z,85.33
2023-04-25T04:38:42.090Z,85.09
2023-04-25T04:41:13.695Z,84.67
2023-04-25T04:43:45.687Z,84.09
2023-04-25T04:46:26.512Z,84.42
2023-04-25T04:48:58.064Z,84.58
2023-04-25T04:51:32.754Z,84.89
2023-04-25T04:54:06.526Z,84.32
2023-04-25T04:56:40.470Z,84.81
2023-04-25T04:59:20.904Z,85.15
2023-04-25T05:02:03.965Z,84.53
2023-04-25T05:04:47.895Z,85.18
2023-04-25T05:07:22.295Z,84.51
2023-04-25T05:10:12.076Z,84.47
2023-04-25T05:12:49.357Z,84.54
2023-04-25T05:15:36.892Z,84.57
2023-04-25T05:18:12.109Z,84.24
2023-04-25T05:20:46.355Z,83.30
2023-04-25T05:23:20.702Z,83.29
2023-04-25T05:26:04.327Z,83.10
2023-04-25T05:28:35.899Z,82.64
2023-04-25T05:31:25.445Z,81.86
2023-04-25T05:33:57.063Z,81.32
2023-04-25T05:36:29.041Z,81.26
2023-04-25T05:38:59.021Z,80.98
2023-04-25T05:41:45.976Z,81.00
2023-04-25T05:44:35.662Z,80.43
2023-04-25T05:47:18.995Z,80.10
2023-04-25T05:49:59.331Z,79.84
2023-04-25T05:52:30.877Z,79.16
2023-04-25T05:55:08.592Z,77.90
2023-04-25T05:57:40.885Z,78.07
2023-04-25T06:02:55.576Z,77.18
2023-04-25T06:05:26.350Z,76.72
2023-04-25T06:07:56.217Z,76.47
2023-04-25T06:10:26.133Z,75.33
2023-04-25T06:12:56.013Z,75.00
2023-04-25T06:15:28.425Z,74.54
2023-04-25T06:17:57.924Z,74.54
2023-04-25T06:20:31.057Z,74.72
2023-04-25T06:23:01.654Z,75.23
2023-04-25T06:25:42.277Z,74.34
2023-04-25T06:28:12.224Z,74.21
2023-04-25T06:30:42.283Z,72.78
2023-04-25T06:33:13.958Z,72.42
2023-04-25T06:35:44.048Z,71.93
2023-04-25T06:38:15.874Z,71.06
2023-04-25T06:40:47.479Z,71.67
2023-04-25T06:43:17.716Z,71.08
2023-04-25T06:45:55.186Z,66.99
2023-04-25T06:48:25.433Z,68.73
2023-04-25T06:50:57.419Z,68.73
2023-04-25T06:53:27.356Z,67.63
2023-04-25T06:55:58.917Z,68.57
2023-04-25T06:58:30.808Z,67.40
2023-04-25T07:01:14.014Z,67.19
2023-04-25T07:03:44.081Z,65.67
2023-04-25T07:06:15.679Z,65.67
2023-04-25T07:08:45.590Z,65.81
2023-04-25T07:11:15.541Z,64.41
2023-04-25T07:13:46.093Z,64.41
2023-04-25T07:16:16.226Z,64.52
2023-04-25T07:18:46.258Z,63.09
2023-04-25T07:21:16.459Z,63.43
2023-04-25T07:23:47.320Z,63.89
2023-04-25T07:26:19.032Z,63.57
2023-04-25T07:29:06.867Z,63.72
2023-04-25T07:31:36.935Z,62.96
2023-04-25T07:34:06.807Z,62.68
2023-04-25T07:36:37.346Z,63.02
2023-04-25T07:39:07.546Z,62.05
2023-04-25T07:41:37.372Z,60.66
2023-04-25T07:44:09.389Z,59.79
2023-04-25T07:46:39.186Z,60.03
2023-04-25T07:49:09.638Z,60.48
2023-04-25T07:51:39.821Z,57.95
2023-04-25T07:54:16.610Z,57.71
2023-04-25T07:56:52.501Z,57.86
2023-04-25T07:59:19.354Z,55.97
2023-04-25T08:01:49.727Z,57.83
2023-04-25T08:04:20.168Z,58.12
2023-04-25T08:06:53.331Z,57.73
2023-04-25T08:09:25.103Z,57.00
2023-04-25T08:11:55.434Z,53.77
2023-04-25T08:14:26.961Z,52.01
2023-04-25T08:16:57.149Z,50.99
2023-04-25T08:19:27.417Z,51.62
2023-04-25T08:21:57.351Z,50.75
2023-04-25T08:24:29.303Z,52.15
2023-04-25T08:26:59.906Z,49.89
2023-04-25T08:29:30.345Z,48.21
2023-04-25T08:31:59.968Z,48.71
2023-04-25T08:34:30.029Z,48.16
2023-04-25T08:37:01.327Z,47.62
2023-04-25T08:39:32.823Z,46.40
2023-04-25T08:42:09.003Z,47.72
2023-04-25T08:44:39.640Z,47.72
2023-04-25T08:47:09.368Z,45.31
2023-04-25T08:49:48.190Z,46.31
2023-04-25T08:52:21.545Z,46.31
2023-04-25T08:54:53.038Z,45.62
2023-04-25T08:57:24.468Z,43.92
2023-04-25T08:59:56.298Z,45.60
2023-04-25T09:02:27.200Z,46.41
2023-04-25T09:04:58.446Z,46.37
2023-04-25T09:07:29.452Z,47.72
2023-04-25T09:10:00.945Z,47.72
2023-04-25T09:12:32.249Z,46.92
2023-04-25T09:15:10.354Z,47.17
2023-04-25T09:18:00.471Z,46.34
2023-04-25T09:20:35.324Z,46.34
2023-04-25T09:23:08.025Z,47.35
2023-04-25T09:25:40.570Z,46.98
2023-04-25T09:28:14.024Z,44.60
2023-04-25T09:30:44.209Z,45.46
2023-04-25T09:33:28.793Z,45.71
2023-04-25T09:36:08.202Z,44.89
2023-04-25T09:38:51.607Z,45.04
2023-04-25T09:41:26.922Z,47.33
2023-04-25T09:44:02.469Z,47.33
2023-04-25T09:46:40.751Z,47.48
2023-04-25T09:49:12.270Z,46.41
2023-04-25T09:51:59.144Z,48.73
2023-04-25T09:54:30.457Z,48.41
2023-04-25T09:57:05.085Z,50.35
2023-04-25T09:59:37.676Z,49.43
2023-04-25T10:02:10.370Z,47.83
2023-04-25T10:04:41.345Z,48.68
2023-04-25T10:07:16.264Z,49.34
2023-04-25T10:09:51.273Z,49.76
2023-04-25T10:12:21.151Z,49.71
2023-04-25T10:14:50.969Z,50.33
2023-04-25T10:17:22.488Z,49.99
2023-04-25T10:19:54.276Z,50.46
2023-04-25T10:22:29.929Z,49.54
2023-04-25T10:25:00.385Z,49.30
2023-04-25T10:27:30.835Z,49.95
2023-04-25T10:30:11.140Z,48.47
2023-04-25T10:32:41.031Z,43.96
2023-04-25T10:35:21.345Z,41.31
2023-04-25T10:38:01.528Z,38.65
2023-04-25T10:40:32.553Z,40.06
2023-04-25T10:43:39.424Z,39.13
2023-04-25T10:46:25.855Z,39.17
2023-04-25T10:48:57.690Z,40.83
2023-04-25T10:51:34.553Z,40.06
2023-04-25T10:54:09.210Z,40.28
2023-04-25T10:56:42.108Z,41.55
2023-04-25T10:59:17.385Z,42.95
2023-04-25T11:01:50.316Z,44.19
2023-04-25T11:04:25.891Z,44.19
2023-04-25T11:07:06.372Z,44.82
2023-04-25T11:09:35.745Z,47.39
2023-04-25T11:12:05.956Z,48.51
2023-04-25T11:14:36.147Z,49.66
2023-04-25T11:17:07.111Z,49.14
2023-04-25T11:19:37.239Z,47.82
2023-04-25T11:22:08.672Z,46.67
2023-04-25T11:24:39.109Z,44.88
2023-04-25T11:27:09.204Z,44.88
2023-04-25T11:29:39.304Z,44.68
2023-04-25T11:32:09.663Z,44.68
2023-04-25T11:34:39.809Z,44.20
2023-04-25T11:37:09.695Z,44.53
2023-04-25T11:39:40.084Z,43.35
2023-04-25T11:42:13.805Z,42.26
2023-04-25T11:44:42.620Z,43.47
2023-04-25T11:47:12.420Z,42.15
2023-04-25T11:49:42.505Z,41.82
2023-04-25T11:52:12.846Z,41.36
2023-04-25T11:54:43.224Z,41.10
2023-04-25T11:57:14.066Z,40.84
2023-04-25T11:59:44.173Z,41.92
2023-04-25T12:02:17.385Z,41.92
2023-04-25T12:04:47.915Z,43.07
2023-04-25T12:07:19.738Z,42.96
2023-04-25T12:09:53.178Z,43.29
2023-04-25T12:12:22.979Z,43.29
2023-04-25T12:14:53.074Z,43.39
2023-04-25T12:17:24.452Z,43.39
2023-04-25T12:19:54.267Z,42.26
2023-04-25T12:22:25.862Z,40.52
2023-04-25T12:24:57.875Z,42.99
2023-04-25T12:27:28.465Z,41.65
2023-04-25T12:29:59.354Z,42.27
2023-04-25T12:32:29.509Z,41.90
2023-04-25T12:34:59.370Z,39.54
2023-04-25T12:37:31.827Z,42.52
2023-04-25T12:40:01.527Z,43.31
2023-04-25T12:42:31.791Z,44.51
2023-04-25T12:45:01.573Z,45.76
2023-04-25T12:47:31.338Z,46.35
2023-04-25T12:50:01.490Z,47.41
2023-04-25T12:52:30.999Z,46.50
2023-04-25T12:55:01.073Z,46.04
2023-04-25T12:57:31.255Z,43.62
2023-04-25T13:00:01.487Z,46.49
2023-04-25T13:02:31.742Z,46.49
2023-04-25T13:05:01.517Z,44.68
2023-04-25T13:07:33.502Z,42.74
2023-04-25T13:10:04.090Z,40.94
2023-04-25T13:12:34.171Z,39.26
2023-04-25T13:15:04.512Z,37.80
2023-04-25T13:17:34.680Z,38.38
2023-04-25T13:20:06.754Z,38.96
2023-04-25T13:22:40.387Z,36.67
2023-04-25T13:25:10.692Z,36.67
2023-04-25T13:27:41.548Z,36.77
2023-04-25T13:30:13.124Z,40.14
2023-04-25T13:32:43.059Z,40.87
2023-04-25T13:35:14.834Z,42.93
2023-04-25T13:37:44.671Z,41.85
2023-04-25T13:40:15.541Z,41.30
2023-04-25T13:42:46.305Z,40.99
2023-04-25T13:45:16.213Z,38.78
2023-04-25T13:47:46.700Z,38.52
2023-04-25T13:50:18.456Z,38.18
2023-04-25T13:52:48.702Z,37.11
2023-04-25T13:55:18.393Z,37.77
2023-04-25T13:57:48.004Z,41.03
2023-04-25T14:00:18.159Z,40.35
2023-04-25T14:02:51.364Z,40.01
2023-04-25T14:05:21.667Z,40.77
2023-04-25T14:07:52.121Z,40.14
2023-04-25T14:10:22.309Z,40.81
2023-04-25T14:12:52.606Z,40.96
2023-04-25T14:15:22.338Z,40.96
2023-04-25T14:17:52.468Z,41.84
2023-04-25T14:20:22.360Z,40.44
2023-04-25T14:22:53.035Z,40.40
2023-04-25T14:25:23.919Z,39.95
2023-04-25T14:27:54.154Z,38.14
2023-04-25T14:30:23.928Z,36.77
2023-04-25T14:32:54.296Z,36.26
2023-04-25T14:35:24.783Z,35.62
2023-04-25T14:37:55.923Z,39.21
2023-04-25T14:40:25.973Z,40.04
2023-04-25T14:42:55.913Z,40.04
2023-04-25T14:45:25.818Z,39.15
2023-04-25T14:47:56.911Z,37.34
2023-04-25T14:50:26.794Z,38.56
2023-04-25T14:52:58.541Z,38.61
2023-04-25T14:55:28.895Z,38.36
2023-04-25T14:57:59.039Z,40.45
2023-04-25T15:00:28.905Z,40.45
2023-04-25T15:03:00.122Z,40.55
2023-04-25T15:05:30.226Z,39.29
2023-04-25T15:08:01.273Z,40.56
2023-04-25T15:10:31.186Z,41.32
2023-04-25T15:13:01.679Z,42.33
2023-04-25T15:15:31.617Z,42.88
2023-04-25T15:18:01.934Z,42.70
2023-04-25T15:20:32.338Z,42.70
2023-04-25T15:23:04.195Z,43.55
2023-04-25T15:25:33.986Z,43.75
2023-04-25T15:28:04.106Z,43.75
2023-04-25T15:30:33.612Z,42.97
2023-04-25T15:33:03.856Z,43.75
2023-04-25T15:35:36.391Z,43.75
2023-04-25T15:38:06.855Z,44.60
2023-04-25T15:40:36.638Z,44.47
2023-04-25T15:43:07.140Z,44.47
2023-04-25T15:45:37.870Z,44.58
2023-04-25T15:48:08.589Z,43.29
2023-04-25T15:50:38.474Z,43.29
2023-04-25T15:53:08.624Z,42.59
2023-04-25T15:55:38.461Z,43.17
2023-04-25T15:58:10.064Z,42.75
2023-04-25T16:00:40.395Z,42.88
2023-04-25T16:03:11.451Z,42.88
2023-04-25T16:05:41.686Z,42.33
2023-04-25T16:08:11.879Z,42.68
2023-04-25T16:10:42.167Z,43.23
2023-04-25T16:13:12.714Z,44.46
2023-04-25T16:15:42.536Z,44.13
2023-04-25T16:18:13.880Z,42.82
2023-04-25T16:20:43.704Z,42.42
2023-04-25T16:23:13.514Z,42.42
2023-04-25T16:25:44.415Z,42.88
2023-04-25T16:28:16.503Z,44.08
2023-04-25T16:30:46.498Z,44.37
2023-04-25T16:33:16.709Z,46.15
2023-04-25T16:35:46.779Z,46.79
2023-04-25T16:38:16.625Z,47.89
2023-04-25T16:40:46.451Z,48.20
2023-04-25T16:43:18.185Z,47.29
2023-04-25T16:45:47.804Z,47.29
2023-04-25T16:48:19.127Z,48.20
2023-04-25T16:50:48.902Z,48.71
2023-04-25T16:53:18.719Z,50.41
2023-04-25T16:55:48.879Z,49.33
2023-04-25T16:58:20.489Z,49.75
2023-04-25T17:00:50.148Z,49.20
2023-04-25T17:03:20.382Z,49.30
2023-04-25T17:05:54.014Z,48.53
2023-04-25T17:08:23.590Z,49.22
2023-04-25T17:10:53.938Z,48.41
2023-04-25T17:13:31.185Z,48.53
2023-04-25T17:15:55.613Z,47.74
2023-04-25T17:18:26.033Z,48.26
2023-04-25T17:20:56.719Z,47.15
2023-04-25T17:23:26.917Z,46.83
2023-04-25T17:25:56.789Z,45.68
2023-04-25T17:28:26.630Z,45.75
2023-04-25T17:30:57.708Z,47.05
2023-04-25T17:33:28.609Z,46.59
2023-04-25T17:35:58.844Z,46.59
2023-04-25T17:38:28.917Z,46.66
2023-04-25T17:40:59.478Z,46.66
2023-04-25T17:43:29.429Z,45.66
2023-04-25T17:45:59.545Z,47.78
2023-04-25T17:48:31.629Z,49.02
2023-04-25T17:51:03.629Z,49.41
2023-04-25T17:53:33.813Z,50.05
2023-04-25T17:56:05.270Z,50.07
2023-04-25T17:58:36.248Z,50.32
2023-04-25T18:01:06.181Z,50.50
2023-04-25T18:03:38.034Z,50.87
2023-04-25T18:06:07.953Z,51.32
2023-04-25T18:08:38.052Z,51.27
2023-04-25T18:11:07.940Z,51.76
2023-04-25T18:13:38.986Z,51.46
2023-04-25T18:16:09.176Z,52.64
2023-04-25T18:18:40.922Z,52.64
2023-04-25T18:21:11.781Z,52.89
2023-04-25T18:23:41.936Z,52.57
2023-04-25T18:26:12.148Z,52.57
2023-04-25T18:28:42.215Z,53.64
2023-04-25T18:31:12.200Z,53.64
2023-04-25T18:33:42.461Z,54.09
2023-04-25T18:36:12.339Z,54.09
2023-04-25T18:38:42.447Z,54.58
2023-04-25T18:41:34.390Z,53.44
2023-04-25T18:43:44.806Z,53.70
2023-04-25T18:46:14.685Z,53.86
2023-04-25T18:48:45.372Z,53.43
2023-04-25T18:51:15.235Z,54.06
2023-04-25T18:53:46.176Z,54.55
2023-04-25T18:56:16.043Z,54.55
2023-04-25T18:58:46.621Z,54.59
2023-04-25T19:01:16.473Z,53.76
2023-04-25T19:03:48.586Z,54.57
2023-04-25T19:06:18.441Z,54.40
2023-04-25T19:08:50.689Z,53.17
2023-04-25T19:11:21.577Z,54.12
2023-04-25T19:13:52.307Z,54.04
2023-04-25T19:16:22.233Z,54.92
2023-04-25T19:18:54.280Z,54.84
2023-04-25T19:21:24.759Z,53.67
2023-04-25T19:23:55.165Z,53.67
2023-04-25T19:26:25.523Z,54.03
2023-04-25T19:29:11.383Z,54.92
2023-04-25T19:31:43.315Z,55.07
2023-04-25T19:34:13.783Z,55.37
2023-04-25T19:36:44.185Z,55.37
2023-04-25T19:39:14.480Z,56.70
2023-04-25T19:41:44.402Z,54.82
2023-04-25T19:44:14.605Z,55.59
2023-04-25T19:46:45.750Z,55.48
2023-04-25T19:49:16.260Z,54.70
2023-04-25T19:51:46.294Z,54.80
2023-04-25T19:54:16.407Z,54.80
2023-04-25T19:56:46.213Z,56.21
2023-04-25T19:59:16.410Z,56.22
2023-04-25T20:01:46.244Z,56.60
2023-04-25T20:04:18.449Z,56.13
2023-04-25T20:06:48.358Z,57.08
2023-04-25T20:09:18.256Z,56.78
2023-04-25T20:11:48.207Z,57.27
2023-04-25T20:14:19.031Z,57.48
2023-04-25T20:16:48.971Z,57.89
2023-04-25T20:19:19.529Z,57.38
2023-04-25T20:21:49.448Z,57.38
2023-04-25T20:24:21.049Z,58.01
2023-04-25T20:26:51.099Z,57.84
2023-04-25T20:29:20.898Z,57.71
2023-04-25T20:31:50.894Z,58.48
2023-04-25T20:34:21.999Z,58.04
2023-04-25T20:36:52.819Z,58.76
2023-04-25T20:39:22.787Z,58.99
2023-04-25T20:41:53.351Z,58.41
2023-04-25T20:44:23.661Z,59.15
2023-04-25T20:46:53.622Z,59.67
2023-04-25T20:49:23.426Z,59.89
2023-04-25T20:51:53.761Z,59.29
2023-04-25T20:54:24.113Z,60.03
2023-04-25T20:56:53.941Z,60.12
2023-04-25T20:59:23.911Z,59.84
2023-04-25T21:01:57.227Z,59.84
2023-04-25T21:04:27.234Z,60.66
2023-04-25T21:06:57.236Z,60.45
2023-04-25T21:09:27.015Z,60.70
2023-04-25T21:11:56.816Z,60.85
2023-04-25T21:14:26.975Z,61.45
2023-04-25T21:16:57.127Z,60.38
2023-04-25T21:19:26.963Z,60.38
2023-04-25T21:21:56.839Z,61.16
2023-04-25T21:24:27.290Z,61.36
2023-04-25T21:26:57.283Z,61.56
2023-04-25T21:29:27.473Z,61.84
2023-04-25T21:31:57.350Z,62.00
2023-04-25T21:34:27.478Z,61.28
2023-04-25T21:36:58.242Z,62.16
2023-04-25T21:39:28.689Z,61.78
2023-04-25T21:41:58.563Z,61.78
2023-04-25T21:44:30.211Z,62.04
2023-04-25T21:47:00.051Z,62.48
2023-04-25T21:49:29.717Z,62.38
2023-04-25T21:52:00.147Z,62.54
2023-04-25T21:54:29.923Z,62.85
2023-04-25T21:56:59.770Z,62.85
2023-04-25T21:59:29.654Z,63.72
2023-04-25T22:01:59.603Z,63.55
2023-04-25T22:04:29.552Z,63.55
2023-04-25T22:06:59.664Z,63.81
2023-04-25T22:09:29.908Z,64.01
2023-04-25T22:12:01.324Z,63.84
2023-04-25T22:14:31.614Z,63.83
2023-04-25T22:17:01.709Z,64.28
2023-04-25T22:19:31.592Z,64.60
2023-04-25T22:22:01.410Z,65.05
2023-04-25T22:24:31.579Z,65.69
2023-04-25T22:27:02.430Z,65.66
2023-04-25T22:29:32.863Z,65.45
2023-04-25T22:32:02.702Z,65.99
2023-04-25T22:34:32.363Z,65.99
2023-04-25T22:37:02.135Z,65.54
2023-04-25T22:39:32.015Z,66.10
2023-04-25T22:42:02.521Z,65.99
2023-04-25T22:44:32.754Z,67.24
2023-04-25T22:47:02.497Z,67.24
2023-04-25T22:49:32.835Z,66.90
2023-04-25T22:52:04.216Z,67.63
2023-04-25T22:54:34.054Z,68.40
2023-04-25T22:57:06.902Z,68.36
2023-04-25T22:59:36.752Z,69.06
2023-04-25T23:02:07.719Z,68.95
2023-04-25T23:04:38.049Z,69.10
2023-04-25T23:07:08.292Z,69.78
2023-04-25T23:09:38.129Z,69.32
2023-04-25T23:12:08.356Z,70.32
2023-04-25T23:14:38.457Z,69.58
2023-04-25T23:17:09.145Z,70.20
2023-04-25T23:22:28.422Z,70.23
2023-04-25T23:24:58.428Z,70.32
2023-04-25T23:27:28.264Z,70.44
2023-04-25T23:29:58.244Z,70.16
2023-04-25T23:32:28.311Z,70.69
2023-04-25T23:34:58.284Z,70.77
2023-04-25T23:37:30.017Z,70.55
2023-04-25T23:39:59.895Z,71.07
2023-04-25T23:42:29.868Z,72.13
2023-04-25T23:44:59.736Z,72.27
2023-04-25T23:47:29.893Z,72.39
2023-04-25T23:49:59.488Z,72.51
2023-04-25T23:52:29.490Z,71.93
2023-04-25T23:54:59.480Z,72.31
2023-04-25T23:57:29.317Z,72.64
2023-04-25T23:59:59.306Z,71.43
